createdAt,value
2023-01-10T00:00:35.880Z,0
2023-01-10T00:01:36.578Z,0
2023-01-10T00:02:37.492Z,0
2023-01-10T00:03:37.864Z,0
2023-01-10T00:04:39.069Z,0
2023-01-10T00:05:39.366Z,0
2023-01-10T00:06:40.001Z,0
2023-01-10T00:07:40.194Z,0
2023-01-10T00:08:41.111Z,0
2023-01-10T00:09:41.323Z,0
2023-01-10T00:10:41.836Z,0
2023-01-10T00:11:41.756Z,0
2023-01-10T00:12:41.940Z,0
2023-01-10T00:13:43.127Z,0
2023-01-10T00:14:44.113Z,0
2023-01-10T00:15:44.366Z,0
2023-01-10T00:16:45.350Z,0
2023-01-10T00:17:45.854Z,0
2023-01-10T00:18:45.814Z,0
2023-01-10T00:19:47.038Z,0
2023-01-10T00:20:46.963Z,0
2023-01-10T00:21:47.887Z,0
2023-01-10T00:22:48.535Z,0
2023-01-10T00:23:48.871Z,0
2023-01-10T00:24:49.797Z,0
2023-01-10T00:25:49.726Z,0
2023-01-10T00:26:50.509Z,0
2023-01-10T00:27:50.479Z,0
2023-01-10T00:28:50.549Z,0
2023-01-10T00:29:51.826Z,0
2023-01-10T00:30:52.369Z,0
2023-01-10T00:31:52.364Z,0
2023-01-10T00:32:53.371Z,0
2023-01-10T00:33:53.585Z,0
2023-01-10T00:34:53.534Z,0
2023-01-10T00:35:54.459Z,0
2023-01-10T00:36:55.114Z,0
2023-01-10T00:37:56.617Z,0
2023-01-10T00:38:57.108Z,0
2023-01-10T00:39:57.039Z,0
2023-01-10T00:40:58.238Z,0
2023-01-10T00:41:58.484Z,0
2023-01-10T00:42:58.233Z,0
2023-01-10T00:43:59.452Z,0
2023-01-10T00:44:59.986Z,0
2023-01-10T00:46:00.359Z,0
2023-01-10T00:47:00.645Z,0
2023-01-10T00:48:01.140Z,0
2023-01-10T00:49:01.084Z,0
2023-01-10T00:50:02.030Z,0
2023-01-10T00:51:02.691Z,0
2023-01-10T00:52:03.931Z,0
2023-01-10T00:53:04.959Z,0
2023-01-10T00:54:04.862Z,0
2023-01-10T00:55:05.062Z,0
2023-01-10T00:56:05.281Z,0
2023-01-10T00:57:06.250Z,0
2023-01-10T00:58:06.453Z,0
2023-01-10T00:59:06.672Z,0
2023-01-10T01:00:07.921Z,0
2023-01-10T01:01:08.801Z,0
2023-01-10T01:02:08.382Z,0
2023-01-10T01:03:09.550Z,0
2023-01-10T01:04:09.513Z,0
2023-01-10T01:05:09.444Z,0
2023-01-10T01:06:10.664Z,0
2023-01-10T01:07:11.302Z,0
2023-01-10T01:08:11.809Z,0
2023-01-10T01:09:12.170Z,0
2023-01-10T01:10:13.387Z,0
2023-01-10T01:11:13.603Z,0
2023-01-10T01:12:13.841Z,0
2023-01-10T01:13:14.558Z,0
2023-01-10T01:14:15.487Z,0
2023-01-10T01:15:16.464Z,0
2023-01-10T01:16:17.017Z,0
2023-01-10T01:17:16.971Z,0
2023-01-10T01:18:17.639Z,0
2023-01-10T01:19:18.867Z,0
2023-01-10T01:20:19.791Z,0
2023-01-10T01:21:19.753Z,0
2023-01-10T01:22:20.666Z,0
2023-01-10T01:23:21.999Z,0
2023-01-10T01:24:23.217Z,0
2023-01-10T01:25:23.421Z,0
2023-01-10T01:26:23.907Z,0
2023-01-10T01:27:24.597Z,0
2023-01-10T01:28:25.089Z,0
2023-01-10T01:29:28.131Z,0
2023-01-10T01:30:26.745Z,0
2023-01-10T01:31:27.789Z,0
2023-01-10T01:32:27.736Z,0
2023-01-10T01:33:28.174Z,0
2023-01-10T01:34:28.395Z,0
2023-01-10T01:35:29.039Z,0
2023-01-10T01:36:30.248Z,0
2023-01-10T01:37:30.171Z,0
2023-01-10T01:38:30.813Z,0
2023-01-10T01:39:31.742Z,0
2023-01-10T01:40:32.355Z,0
2023-01-10T01:41:32.728Z,0
2023-01-10T01:42:33.960Z,0
2023-01-10T01:43:34.431Z,0
2023-01-10T01:44:34.634Z,0
2023-01-10T01:45:35.167Z,0
2023-01-10T01:46:35.338Z,0
2023-01-10T01:47:35.904Z,0
2023-01-10T01:48:36.120Z,0
2023-01-10T01:49:37.076Z,0
2023-01-10T01:50:36.978Z,0
2023-01-10T01:51:37.323Z,0
2023-01-10T01:52:37.962Z,0
2023-01-10T01:53:39.009Z,0
2023-01-10T01:54:39.648Z,0
2023-01-10T01:55:40.581Z,0
2023-01-10T01:56:41.506Z,0
2023-01-10T01:57:42.589Z,0
2023-01-10T01:58:42.816Z,0
2023-01-10T01:59:43.301Z,0
2023-01-10T02:00:43.667Z,0
2023-01-10T02:01:44.204Z,0
2023-01-10T02:02:54.109Z,0
2023-01-10T02:03:49.559Z,0
2023-01-10T02:04:49.253Z,0
2023-01-10T02:05:50.466Z,0
2023-01-10T02:06:51.684Z,0
2023-01-10T02:07:51.898Z,0
2023-01-10T02:08:52.410Z,0
2023-01-10T02:09:52.363Z,0
2023-01-10T02:10:53.575Z,0
2023-01-10T02:11:53.494Z,0
2023-01-10T02:12:53.855Z,0
2023-01-10T02:13:55.417Z,0
2023-01-10T02:14:55.352Z,0
2023-01-10T02:15:56.596Z,0
2023-01-10T02:16:57.575Z,0
2023-01-10T02:17:57.230Z,0
2023-01-10T02:18:58.182Z,0
2023-01-10T02:19:58.422Z,0
2023-01-10T02:20:58.916Z,0
2023-01-10T02:21:58.850Z,0
2023-01-10T02:22:59.055Z,0
2023-01-10T02:23:59.815Z,0
2023-01-10T02:25:00.998Z,0
2023-01-10T02:26:01.644Z,0
2023-01-10T02:27:02.840Z,0
2023-01-10T02:28:03.115Z,0
2023-01-10T02:29:03.306Z,0
2023-01-10T02:30:03.529Z,0
2023-01-10T02:31:04.267Z,0
2023-01-10T02:32:04.273Z,0
2023-01-10T02:33:16.116Z,0
2023-01-10T02:34:03.532Z,0
2023-01-10T02:35:04.286Z,0
2023-01-10T02:36:05.477Z,0
2023-01-10T02:37:05.683Z,0
2023-01-10T02:38:06.319Z,0
2023-01-10T02:39:07.583Z,0
2023-01-10T02:40:07.781Z,0
2023-01-10T02:41:08.175Z,0
2023-01-10T02:42:09.664Z,0
2023-01-10T02:43:09.619Z,0
2023-01-10T02:44:09.844Z,0
2023-01-10T02:45:10.200Z,0
2023-01-10T02:46:11.075Z,0
2023-01-10T02:47:10.518Z,0
2023-01-10T02:48:11.152Z,0
2023-01-10T02:49:12.368Z,0
2023-01-10T02:50:12.304Z,0
2023-01-10T02:51:13.780Z,0
2023-01-10T02:52:14.129Z,0
2023-01-10T02:53:15.052Z,0
2023-01-10T02:54:15.370Z,0
2023-01-10T02:55:15.297Z,0
2023-01-10T02:56:16.486Z,0
2023-01-10T02:57:17.001Z,0
2023-01-10T02:58:17.214Z,0
2023-01-10T02:59:17.698Z,0
2023-01-10T03:00:17.901Z,0
2023-01-10T03:01:19.082Z,0
2023-01-10T03:02:19.709Z,0
2023-01-10T03:03:19.648Z,0
2023-01-10T03:04:20.674Z,0
2023-01-10T03:05:22.141Z,0
2023-01-10T03:06:22.072Z,0
2023-01-10T03:07:22.705Z,0
2023-01-10T03:08:23.061Z,0
2023-01-10T03:09:24.005Z,0
2023-01-10T03:10:24.490Z,0
2023-01-10T03:11:24.680Z,0
2023-01-10T03:12:24.602Z,0
2023-01-10T03:13:25.571Z,0
2023-01-10T03:14:26.302Z,0
2023-01-10T03:15:26.508Z,0
2023-01-10T03:16:27.525Z,0
2023-01-10T03:17:27.162Z,0
2023-01-10T03:18:27.647Z,0
2023-01-10T03:19:27.850Z,0
2023-01-10T03:20:27.825Z,0
2023-01-10T03:21:28.053Z,0
2023-01-10T03:22:27.679Z,0
2023-01-10T03:23:28.870Z,0
2023-01-10T03:24:29.193Z,0
2023-01-10T03:25:29.384Z,0
2023-01-10T03:26:30.323Z,0
2023-01-10T03:27:31.534Z,0
2023-01-10T03:28:32.467Z,0
2023-01-10T03:29:32.975Z,0
2023-01-10T03:30:32.885Z,0
2023-01-10T03:31:34.462Z,0
2023-01-10T03:32:34.468Z,0
2023-01-10T03:33:35.397Z,0
2023-01-10T03:34:36.141Z,0
2023-01-10T03:35:36.652Z,0
2023-01-10T03:36:37.167Z,0
2023-01-10T03:37:37.353Z,0
2023-01-10T03:38:37.554Z,0
2023-01-10T03:39:37.787Z,0
2023-01-10T03:40:38.314Z,0
2023-01-10T03:41:38.268Z,0
2023-01-10T03:42:38.484Z,0
2023-01-10T03:43:38.697Z,0
2023-01-10T03:44:39.297Z,0
2023-01-10T03:45:39.244Z,0
2023-01-10T03:46:39.946Z,0
2023-01-10T03:47:39.668Z,0
2023-01-10T03:48:40.595Z,0
2023-01-10T03:49:41.496Z,0
2023-01-10T03:50:42.428Z,0
2023-01-10T03:51:43.350Z,0
2023-01-10T03:52:43.539Z,0
2023-01-10T03:53:44.732Z,0
2023-01-10T03:54:44.763Z,0
2023-01-10T03:55:44.672Z,0
2023-01-10T03:56:45.579Z,0
2023-01-10T03:57:46.497Z,0
2023-01-10T03:58:46.431Z,0
2023-01-10T03:59:46.372Z,0
2023-01-10T04:00:47.066Z,0
2023-01-10T04:01:48.204Z,0
2023-01-10T04:02:47.678Z,0
2023-01-10T04:03:47.985Z,0
2023-01-10T04:04:48.423Z,0
2023-01-10T04:05:48.614Z,0
2023-01-10T04:06:48.826Z,0
2023-01-10T04:07:48.787Z,0
2023-01-10T04:08:49.431Z,0
2023-01-10T04:09:49.666Z,0
2023-01-10T04:10:50.153Z,0
2023-01-10T04:11:50.375Z,0
2023-01-10T04:12:50.586Z,0
2023-01-10T04:13:51.530Z,0
2023-01-10T04:14:52.821Z,0
2023-01-10T04:15:53.213Z,0
2023-01-10T04:16:53.340Z,0
2023-01-10T04:17:54.564Z,0
2023-01-10T04:18:54.785Z,0
2023-01-10T04:19:55.741Z,0
2023-01-10T04:20:57.951Z,0
2023-01-10T04:21:55.852Z,0
2023-01-10T04:22:56.848Z,0
2023-01-10T04:23:57.045Z,0
2023-01-10T04:24:57.528Z,0
2023-01-10T04:25:57.745Z,0
2023-01-10T04:26:58.677Z,0
2023-01-10T04:27:59.177Z,0
2023-01-10T04:28:59.406Z,0
2023-01-10T04:30:00.616Z,0
2023-01-10T04:31:00.815Z,0
2023-01-10T04:32:02.104Z,0
2023-01-10T04:33:02.321Z,0
2023-01-10T04:34:03.567Z,0
2023-01-10T04:35:03.570Z,0
2023-01-10T04:36:04.525Z,0
2023-01-10T04:37:04.744Z,0
2023-01-10T04:38:05.658Z,0
2023-01-10T04:39:06.910Z,0
2023-01-10T04:40:07.134Z,0
2023-01-10T04:41:07.064Z,0
2023-01-10T04:42:07.983Z,0
2023-01-10T04:43:09.221Z,0
2023-01-10T04:44:10.474Z,0
2023-01-10T04:45:10.814Z,0
2023-01-10T04:46:11.230Z,0
2023-01-10T04:47:11.774Z,0
2023-01-10T04:48:11.713Z,0
2023-01-10T04:49:12.368Z,0
2023-01-10T04:50:13.586Z,0
2023-01-10T04:51:13.560Z,0
2023-01-10T04:52:15.040Z,0
2023-01-10T04:53:15.982Z,0
2023-01-10T04:54:15.619Z,0
2023-01-10T04:55:17.231Z,0
2023-01-10T04:56:17.736Z,0
2023-01-10T04:57:17.959Z,0
2023-01-10T04:58:18.876Z,0
2023-01-10T04:59:19.397Z,0
2023-01-10T05:00:19.598Z,0
2023-01-10T05:01:20.414Z,0
2023-01-10T05:02:21.127Z,0
2023-01-10T05:03:21.611Z,0
2023-01-10T05:04:21.565Z,0
2023-01-10T05:05:22.178Z,0
2023-01-10T05:06:22.409Z,0
2023-01-10T05:07:22.640Z,0
2023-01-10T05:08:23.571Z,0
2023-01-10T05:09:24.488Z,0
2023-01-10T05:10:24.423Z,0
2023-01-10T05:11:25.352Z,0
2023-01-10T05:12:26.251Z,0
2023-01-10T05:13:26.897Z,0
2023-01-10T05:14:27.554Z,0
2023-01-10T05:15:28.584Z,0
2023-01-10T05:16:29.016Z,0
2023-01-10T05:17:29.631Z,0
2023-01-10T05:18:30.256Z,0
2023-01-10T05:19:31.203Z,0
2023-01-10T05:20:32.415Z,0
2023-01-10T05:21:32.412Z,0
2023-01-10T05:22:32.050Z,0
2023-01-10T05:23:32.974Z,0
2023-01-10T05:24:34.203Z,0
2023-01-10T05:25:34.336Z,0
2023-01-10T05:26:35.564Z,0
2023-01-10T05:27:36.498Z,0
2023-01-10T05:28:37.003Z,0
2023-01-10T05:29:37.234Z,0
2023-01-10T05:30:37.879Z,0
2023-01-10T05:31:39.174Z,0
2023-01-10T05:32:40.482Z,0
2023-01-10T05:33:40.699Z,0
2023-01-10T05:34:41.361Z,0
2023-01-10T05:35:42.369Z,0
2023-01-10T05:36:42.598Z,0
2023-01-10T05:37:43.916Z,0
2023-01-10T05:38:44.112Z,0
2023-01-10T05:39:45.051Z,0
2023-01-10T05:40:45.585Z,0
2023-01-10T05:41:45.522Z,0
2023-01-10T05:42:46.740Z,0
2023-01-10T05:43:47.448Z,0
2023-01-10T05:44:48.383Z,0
2023-01-10T05:45:48.919Z,0
2023-01-10T05:46:48.990Z,0
2023-01-10T05:47:49.234Z,0
2023-01-10T05:48:49.150Z,0
2023-01-10T05:49:50.373Z,0
2023-01-10T05:50:50.864Z,0
2023-01-10T05:51:51.378Z,0
2023-01-10T05:52:51.585Z,0
2023-01-10T05:53:55.716Z,0
2023-01-10T05:54:52.929Z,0
2023-01-10T05:55:53.405Z,0
2023-01-10T05:56:54.607Z,0
2023-01-10T05:57:54.827Z,0
2023-01-10T05:59:27.967Z,0
2023-01-10T05:59:55.948Z,0
2023-01-10T06:00:57.046Z,0
2023-01-10T06:01:57.278Z,0
2023-01-10T06:02:57.906Z,0
2023-01-10T06:03:58.220Z,0
2023-01-10T06:04:59.142Z,0
2023-01-10T06:06:00.348Z,0
2023-01-10T06:07:00.859Z,0
2023-01-10T06:08:01.406Z,0
2023-01-10T06:09:01.310Z,0
2023-01-10T06:10:02.548Z,0
2023-01-10T06:11:03.050Z,0
2023-01-10T06:12:03.007Z,0
2023-01-10T06:13:03.659Z,0
2023-01-10T06:14:04.618Z,0
2023-01-10T06:15:04.960Z,0
2023-01-10T06:16:06.174Z,0
2023-01-10T06:17:06.287Z,0
2023-01-10T06:18:07.570Z,0
2023-01-10T06:19:07.848Z,0
2023-01-10T06:20:07.772Z,4
2023-01-10T06:21:08.693Z,4
2023-01-10T06:22:09.216Z,4
2023-01-10T06:23:09.422Z,4
2023-01-10T06:24:09.342Z,0
2023-01-10T06:25:13.375Z,0
2023-01-10T06:26:11.062Z,0
2023-01-10T06:27:10.978Z,0
2023-01-10T06:28:11.909Z,0
2023-01-10T06:29:12.106Z,0
2023-01-10T06:30:11.749Z,0
2023-01-10T06:31:13.235Z,0
2023-01-10T06:32:13.746Z,0
2023-01-10T06:33:14.000Z,0
2023-01-10T06:34:14.897Z,0
2023-01-10T06:35:15.248Z,0
2023-01-10T06:36:16.250Z,0
2023-01-10T06:37:19.407Z,0
2023-01-10T06:38:17.570Z,0
2023-01-10T06:39:17.768Z,0
2023-01-10T06:40:17.964Z,0
2023-01-10T06:41:19.400Z,0
2023-01-10T06:42:19.611Z,0
2023-01-10T06:43:20.550Z,0
2023-01-10T06:44:21.553Z,0
2023-01-10T06:45:22.792Z,0
2023-01-10T06:46:23.883Z,0
2023-01-10T06:47:24.086Z,0
2023-01-10T06:48:25.350Z,4
2023-01-10T06:49:24.995Z,4
2023-01-10T06:50:25.941Z,0
2023-01-10T06:51:26.872Z,0
2023-01-10T06:52:27.121Z,4
2023-01-10T06:53:28.331Z,0
2023-01-10T06:54:28.565Z,4
2023-01-10T06:55:28.869Z,4
2023-01-10T06:56:28.886Z,0
2023-01-10T06:57:29.650Z,4
2023-01-10T06:58:29.882Z,4
2023-01-10T06:59:30.387Z,4
2023-01-10T07:00:31.038Z,4
2023-01-10T07:01:32.251Z,4
2023-01-10T07:02:31.505Z,4
2023-01-10T07:03:32.219Z,8
2023-01-10T07:04:32.517Z,4
2023-01-10T07:05:33.438Z,4
2023-01-10T07:06:33.539Z,8
2023-01-10T07:07:34.504Z,12
2023-01-10T07:08:34.520Z,8
2023-01-10T07:09:35.164Z,12
2023-01-10T07:10:35.824Z,12
2023-01-10T07:11:37.034Z,12
2023-01-10T07:12:38.268Z,12
2023-01-10T07:13:37.918Z,16
2023-01-10T07:14:38.889Z,16
2023-01-10T07:15:39.191Z,16
2023-01-10T07:16:39.482Z,16
2023-01-10T07:17:40.687Z,20
2023-01-10T07:18:40.680Z,20
2023-01-10T07:19:41.189Z,24
2023-01-10T07:20:41.423Z,24
2023-01-10T07:21:42.366Z,28
2023-01-10T07:22:42.570Z,28
2023-01-10T07:23:42.836Z,32
2023-01-10T07:24:42.741Z,32
2023-01-10T07:25:43.669Z,40
2023-01-10T07:26:44.015Z,40
2023-01-10T07:27:44.363Z,40
2023-01-10T07:28:45.883Z,44
2023-01-10T07:29:46.524Z,44
2023-01-10T07:30:47.055Z,44
2023-01-10T07:31:47.441Z,48
2023-01-10T07:32:47.933Z,52
2023-01-10T07:33:48.482Z,56
2023-01-10T07:34:48.979Z,64
2023-01-10T07:35:49.471Z,64
2023-01-10T07:36:50.717Z,68
2023-01-10T07:37:50.950Z,64
2023-01-10T07:38:51.202Z,68
2023-01-10T07:39:51.833Z,64
2023-01-10T07:40:52.484Z,72
2023-01-10T07:41:53.712Z,76
2023-01-10T07:42:54.945Z,88
2023-01-10T07:43:55.144Z,88
2023-01-10T07:44:55.665Z,88
2023-01-10T07:45:55.788Z,92
2023-01-10T07:46:55.865Z,92
2023-01-10T07:47:57.065Z,92
2023-01-10T07:48:57.346Z,92
2023-01-10T07:49:57.550Z,88
2023-01-10T07:50:58.522Z,84
2023-01-10T07:51:59.012Z,88
2023-01-10T07:52:59.238Z,88
2023-01-10T07:53:59.481Z,96
2023-01-10T07:55:00.010Z,108
2023-01-10T07:56:00.504Z,116
2023-01-10T07:57:00.528Z,116
2023-01-10T07:58:01.455Z,108
2023-01-10T07:59:01.700Z,104
2023-01-10T08:00:02.914Z,112
2023-01-10T08:01:03.771Z,124
2023-01-10T08:02:04.048Z,136
2023-01-10T08:03:05.253Z,144
2023-01-10T08:04:05.859Z,148
2023-01-10T08:05:05.492Z,152
2023-01-10T08:06:05.413Z,172
2023-01-10T08:07:07.031Z,180
2023-01-10T08:08:07.275Z,156
2023-01-10T08:09:08.215Z,152
2023-01-10T08:10:08.731Z,144
2023-01-10T08:11:08.965Z,140
2023-01-10T08:12:09.500Z,136
2023-01-10T08:13:24.743Z,120
2023-01-10T08:14:10.018Z,112
2023-01-10T08:15:10.374Z,112
2023-01-10T08:16:12.223Z,104
2023-01-10T08:17:12.026Z,108
2023-01-10T08:18:12.499Z,104
2023-01-10T08:19:13.102Z,100
2023-01-10T08:20:13.037Z,96
2023-01-10T08:21:13.114Z,100
2023-01-10T08:22:14.041Z,108
2023-01-10T08:23:15.294Z,112
2023-01-10T08:24:15.512Z,104
2023-01-10T08:25:15.485Z,84
2023-01-10T08:26:16.718Z,96
2023-01-10T08:27:17.782Z,96
2023-01-10T08:28:18.731Z,92
2023-01-10T08:29:19.211Z,96
2023-01-10T08:30:19.193Z,108
2023-01-10T08:31:20.194Z,116
2023-01-10T08:32:20.341Z,116
2023-01-10T08:33:20.014Z,128
2023-01-10T08:34:21.587Z,136
2023-01-10T08:35:21.785Z,140
2023-01-10T08:36:22.060Z,124
2023-01-10T08:37:22.405Z,140
2023-01-10T08:38:23.055Z,168
2023-01-10T08:39:24.001Z,212
2023-01-10T08:40:25.235Z,248
2023-01-10T08:41:25.182Z,268
2023-01-10T08:42:26.426Z,276
2023-01-10T08:43:26.650Z,272
2023-01-10T08:44:27.608Z,268
2023-01-10T08:45:28.158Z,264
2023-01-10T08:46:28.766Z,256
2023-01-10T08:47:28.921Z,252
2023-01-10T08:48:29.288Z,256
2023-01-10T08:49:30.539Z,264
2023-01-10T08:50:30.788Z,264
2023-01-10T08:51:32.008Z,268
2023-01-10T08:52:31.705Z,284
2023-01-10T08:53:32.952Z,296
2023-01-10T08:54:33.192Z,312
2023-01-10T08:55:33.458Z,320
2023-01-10T08:56:33.989Z,336
2023-01-10T08:57:34.354Z,352
2023-01-10T08:58:34.907Z,356
2023-01-10T08:59:35.133Z,352
2023-01-10T09:00:35.373Z,344
2023-01-10T09:01:36.711Z,336
2023-01-10T09:02:36.137Z,336
2023-01-10T09:03:35.870Z,344
2023-01-10T09:04:39.138Z,348
2023-01-10T09:05:38.843Z,332
2023-01-10T09:06:37.490Z,332
2023-01-10T09:07:39.092Z,344
2023-01-10T09:08:39.356Z,356
2023-01-10T09:09:39.843Z,360
2023-01-10T09:10:40.353Z,356
2023-01-10T09:11:41.833Z,344
2023-01-10T09:12:40.889Z,332
2023-01-10T09:13:41.101Z,316
2023-01-10T09:14:41.334Z,304
2023-01-10T09:15:42.323Z,296
2023-01-10T09:16:43.038Z,308
2023-01-10T09:17:42.821Z,332
2023-01-10T09:18:43.116Z,364
2023-01-10T09:19:44.351Z,396
2023-01-10T09:20:44.293Z,428
2023-01-10T09:21:45.543Z,468
2023-01-10T09:22:46.477Z,468
2023-01-10T09:23:48.517Z,456
2023-01-10T09:24:47.800Z,468
2023-01-10T09:25:48.458Z,508
2023-01-10T09:26:49.684Z,544
2023-01-10T09:27:50.831Z,528
2023-01-10T09:28:54.701Z,480
2023-01-10T09:29:51.351Z,472
2023-01-10T09:30:51.598Z,484
2023-01-10T09:31:52.832Z,504
2023-01-10T09:32:52.762Z,508
2023-01-10T09:33:57.918Z,512
2023-01-10T09:34:54.902Z,492
2023-01-10T09:35:55.443Z,444
2023-01-10T09:36:55.679Z,420
2023-01-10T09:37:56.676Z,376
2023-01-10T09:38:56.966Z,344
2023-01-10T09:39:56.958Z,340
2023-01-10T09:40:58.237Z,344
2023-01-10T09:41:58.181Z,360
2023-01-10T09:42:59.723Z,372
2023-01-10T09:44:01.392Z,364
2023-01-10T09:45:00.453Z,352
2023-01-10T09:46:01.967Z,348
2023-01-10T09:47:06.181Z,344
2023-01-10T09:48:05.444Z,336
2023-01-10T09:49:05.823Z,332
2023-01-10T09:50:06.132Z,328
2023-01-10T09:51:06.487Z,324
2023-01-10T09:52:08.474Z,320
2023-01-10T09:53:06.959Z,316
2023-01-10T09:54:20.927Z,312
2023-01-10T09:55:07.811Z,320
2023-01-10T09:56:08.079Z,328
2023-01-10T09:57:08.768Z,340
2023-01-10T09:58:09.387Z,360
2023-01-10T09:59:10.003Z,388
2023-01-10T10:00:10.389Z,404
2023-01-10T10:01:10.933Z,436
2023-01-10T10:02:11.644Z,448
2023-01-10T10:03:12.394Z,468
2023-01-10T10:04:13.245Z,480
2023-01-10T10:05:13.881Z,480
2023-01-10T10:06:23.346Z,500
2023-01-10T10:07:14.828Z,516
2023-01-10T10:08:14.893Z,536
2023-01-10T10:09:16.548Z,540
2023-01-10T10:10:15.846Z,548
2023-01-10T10:11:16.340Z,572
2023-01-10T10:12:16.265Z,624
2023-01-10T10:13:32.649Z,716
2023-01-10T10:14:17.597Z,784
2023-01-10T10:15:18.098Z,884
2023-01-10T10:16:18.273Z,960
2023-01-10T10:17:18.941Z,972
2023-01-10T10:18:19.003Z,940
2023-01-10T10:19:20.243Z,912
2023-01-10T10:20:20.791Z,920
2023-01-10T10:21:20.719Z,956
2023-01-10T10:22:23.074Z,956
2023-01-10T10:23:22.310Z,952
2023-01-10T10:24:22.521Z,924
2023-01-10T10:25:22.206Z,956
2023-01-10T10:26:23.143Z,1020
2023-01-10T10:27:24.367Z,968
2023-01-10T10:28:25.092Z,884
2023-01-10T10:29:24.745Z,840
2023-01-10T10:30:25.975Z,820
2023-01-10T10:31:26.763Z,816
2023-01-10T10:32:27.031Z,848
2023-01-10T10:33:26.959Z,876
2023-01-10T10:34:27.602Z,892
2023-01-10T10:35:27.920Z,924
2023-01-10T10:36:28.590Z,944
2023-01-10T10:37:30.095Z,916
2023-01-10T10:38:31.114Z,868
2023-01-10T10:39:31.369Z,800
2023-01-10T10:40:31.680Z,784
2023-01-10T10:41:32.205Z,804
2023-01-10T10:42:31.863Z,844
2023-01-10T10:43:33.175Z,920
2023-01-10T10:44:32.872Z,1108
2023-01-10T10:45:36.857Z,1332
2023-01-10T10:46:34.926Z,1460
2023-01-10T10:47:35.286Z,1528
2023-01-10T10:48:35.683Z,1336
2023-01-10T10:49:36.926Z,1096
2023-01-10T10:50:37.469Z,1012
2023-01-10T10:51:38.006Z,900
2023-01-10T10:52:38.937Z,792
2023-01-10T10:53:39.378Z,796
2023-01-10T10:54:39.968Z,896
2023-01-10T10:55:40.464Z,996
2023-01-10T10:56:41.419Z,980
2023-01-10T10:57:48.404Z,872
2023-01-10T10:58:43.575Z,732
2023-01-10T10:59:43.787Z,644
2023-01-10T11:00:45.115Z,584
2023-01-10T11:01:46.297Z,532
2023-01-10T11:02:46.028Z,520
2023-01-10T11:03:46.985Z,552
2023-01-10T11:04:47.698Z,564
2023-01-10T11:05:47.740Z,540
2023-01-10T11:06:47.980Z,520
2023-01-10T11:07:48.516Z,524
2023-01-10T11:08:49.134Z,564
2023-01-10T11:09:50.614Z,648
2023-01-10T11:10:49.889Z,724
2023-01-10T11:11:50.866Z,736
2023-01-10T11:12:51.808Z,744
2023-01-10T11:13:52.049Z,764
2023-01-10T11:14:52.361Z,776
2023-01-10T11:15:54.684Z,776
2023-01-10T11:16:53.559Z,752
2023-01-10T11:17:53.833Z,732
2023-01-10T11:18:54.859Z,744
2023-01-10T11:19:55.411Z,776
2023-01-10T11:20:55.951Z,840
2023-01-10T11:21:56.150Z,892
2023-01-10T11:22:57.069Z,844
2023-01-10T11:23:57.273Z,852
2023-01-10T11:24:57.684Z,924
2023-01-10T11:25:58.949Z,1056
2023-01-10T11:26:59.166Z,1132
2023-01-10T11:27:59.105Z,1076
2023-01-10T11:29:00.423Z,1032
2023-01-10T11:30:00.386Z,1288
2023-01-10T11:31:01.625Z,4552
2023-01-10T11:32:02.209Z,4940
2023-01-10T11:33:02.756Z,12192
2023-01-10T11:34:03.313Z,2420
2023-01-10T11:35:03.820Z,1728
2023-01-10T11:36:04.089Z,8140
2023-01-10T11:37:04.031Z,7480
2023-01-10T11:38:05.267Z,8544
2023-01-10T11:39:06.310Z,2024
2023-01-10T11:40:06.834Z,7512
2023-01-10T11:41:07.531Z,5596
2023-01-10T11:42:07.758Z,3272
2023-01-10T11:43:10.546Z,4452
2023-01-10T11:44:09.487Z,6700
2023-01-10T11:45:10.024Z,8736
2023-01-10T11:46:10.881Z,7064
2023-01-10T11:47:10.399Z,4672
2023-01-10T11:48:11.427Z,4056
2023-01-10T11:49:20.288Z,5408
2023-01-10T11:50:21.546Z,5180
2023-01-10T11:51:22.180Z,4904
2023-01-10T11:52:22.828Z,8028
2023-01-10T11:53:22.771Z,7732
2023-01-10T11:54:23.756Z,6884
2023-01-10T11:55:25.066Z,5180
2023-01-10T11:56:26.289Z,7264
2023-01-10T11:57:26.797Z,4900
2023-01-10T11:58:27.101Z,5176
2023-01-10T11:59:27.535Z,7216
2023-01-10T12:00:27.794Z,7496
2023-01-10T12:01:27.861Z,3296
2023-01-10T12:02:28.545Z,6932
2023-01-10T12:03:29.242Z,6864
2023-01-10T12:04:29.184Z,2452
2023-01-10T12:05:29.332Z,2880
2023-01-10T12:06:29.910Z,2500
2023-01-10T12:07:30.133Z,2332
2023-01-10T12:08:30.344Z,2964
2023-01-10T12:09:30.678Z,2496
2023-01-10T12:10:32.562Z,2944
2023-01-10T12:11:31.229Z,2184
2023-01-10T12:12:31.895Z,1324
2023-01-10T12:13:33.223Z,1876
2023-01-10T12:14:33.479Z,1208
2023-01-10T12:15:33.723Z,1412
2023-01-10T12:16:34.272Z,1748
2023-01-10T12:17:33.838Z,1656
2023-01-10T12:18:35.083Z,1656
2023-01-10T12:19:35.834Z,5676
2023-01-10T12:20:37.076Z,2144
2023-01-10T12:21:37.374Z,2204
2023-01-10T12:22:37.888Z,2040
2023-01-10T12:23:38.104Z,2600
2023-01-10T12:24:38.370Z,2436
2023-01-10T12:25:38.949Z,1952
2023-01-10T12:26:39.536Z,2252
2023-01-10T12:27:39.741Z,2316
2023-01-10T12:28:40.664Z,5548
2023-01-10T12:29:42.120Z,2396
2023-01-10T12:30:42.337Z,2392
2023-01-10T12:31:42.393Z,2040
2023-01-10T12:32:43.901Z,2076
2023-01-10T12:33:44.480Z,6216
2023-01-10T12:34:44.469Z,3424
2023-01-10T12:35:44.996Z,6184
2023-01-10T12:36:45.287Z,6584
2023-01-10T12:37:45.981Z,7228
2023-01-10T12:38:46.643Z,7024
2023-01-10T12:39:47.762Z,6744
2023-01-10T12:40:49.266Z,6676
2023-01-10T12:41:49.673Z,6668
2023-01-10T12:42:49.606Z,6324
2023-01-10T12:43:50.829Z,3940
2023-01-10T12:44:52.042Z,6144
2023-01-10T12:45:52.448Z,6164
2023-01-10T12:47:19.689Z,6088
2023-01-10T12:47:53.263Z,6032
2023-01-10T12:48:53.784Z,5884
2023-01-10T12:49:53.866Z,6016
2023-01-10T12:50:55.120Z,5868
2023-01-10T12:51:56.107Z,5544
2023-01-10T12:52:56.027Z,5060
2023-01-10T12:53:57.123Z,4424
2023-01-10T12:54:57.601Z,4124
2023-01-10T12:55:58.316Z,4092
2023-01-10T12:56:59.640Z,3820
2023-01-10T12:58:03.275Z,3448
2023-01-10T12:58:59.971Z,3720
2023-01-10T13:00:01.028Z,4164
2023-01-10T13:01:01.370Z,3968
2023-01-10T13:02:02.685Z,3800
2023-01-10T13:03:02.436Z,4072
2023-01-10T13:04:03.077Z,4260
2023-01-10T13:05:03.319Z,4124
2023-01-10T13:06:04.024Z,4608
2023-01-10T13:07:05.105Z,1664
2023-01-10T13:08:05.230Z,1500
2023-01-10T13:09:05.454Z,1488
2023-01-10T13:10:06.035Z,1384
2023-01-10T13:11:06.535Z,1364
2023-01-10T13:12:07.083Z,1312
2023-01-10T13:13:07.636Z,1228
2023-01-10T13:14:07.881Z,2696
2023-01-10T13:15:07.851Z,1880
2023-01-10T13:16:08.187Z,3960
2023-01-10T13:17:08.287Z,2468
2023-01-10T13:18:08.820Z,3104
2023-01-10T13:19:09.391Z,1060
2023-01-10T13:20:09.724Z,992
2023-01-10T13:21:09.939Z,1304
2023-01-10T13:22:10.187Z,2128
2023-01-10T13:23:10.266Z,2704
2023-01-10T13:24:10.504Z,2960
2023-01-10T13:25:10.728Z,4188
2023-01-10T13:26:11.050Z,1864
2023-01-10T13:27:12.023Z,956
2023-01-10T13:28:13.244Z,3204
2023-01-10T13:29:13.461Z,2076
2023-01-10T13:30:14.601Z,3996
2023-01-10T13:31:15.366Z,924
2023-01-10T13:32:15.727Z,1036
2023-01-10T13:33:16.011Z,1360
2023-01-10T13:34:16.987Z,636
2023-01-10T13:35:17.219Z,624
2023-01-10T13:36:18.454Z,648
2023-01-10T13:37:18.703Z,768
2023-01-10T13:38:18.652Z,2400
2023-01-10T13:39:19.869Z,696
2023-01-10T13:40:20.873Z,816
2023-01-10T13:41:20.828Z,752
2023-01-10T13:42:21.843Z,800
2023-01-10T13:43:23.083Z,872
2023-01-10T13:44:23.597Z,844
2023-01-10T13:45:23.874Z,1060
2023-01-10T13:46:25.147Z,1280
2023-01-10T13:47:25.491Z,2884
2023-01-10T13:48:26.432Z,820
2023-01-10T13:49:27.725Z,1720
2023-01-10T13:50:27.862Z,3188
2023-01-10T13:51:28.838Z,3512
2023-01-10T13:52:29.468Z,672
2023-01-10T13:53:29.411Z,1008
2023-01-10T13:54:30.339Z,3576
2023-01-10T13:55:30.598Z,544
2023-01-10T13:56:30.800Z,460
2023-01-10T13:57:34.043Z,452
2023-01-10T13:58:31.978Z,1160
2023-01-10T13:59:32.382Z,3216
2023-01-10T14:00:32.677Z,556
2023-01-10T14:01:33.342Z,548
2023-01-10T14:02:34.107Z,508
2023-01-10T14:03:34.065Z,512
2023-01-10T14:04:34.850Z,516
2023-01-10T14:05:34.892Z,496
2023-01-10T14:06:35.180Z,540
2023-01-10T14:07:36.458Z,572
2023-01-10T14:08:37.243Z,564
2023-01-10T14:09:38.321Z,580
2023-01-10T14:10:38.413Z,584
2023-01-10T14:11:38.967Z,604
2023-01-10T14:12:38.541Z,628
2023-01-10T14:13:40.077Z,632
2023-01-10T14:14:40.591Z,632
2023-01-10T14:15:41.009Z,636
2023-01-10T14:17:41.674Z,788
2023-01-10T14:18:41.940Z,2192
2023-01-10T14:19:43.298Z,744
2023-01-10T14:20:43.391Z,756
2023-01-10T14:21:45.538Z,2352